Aviation Digital Data Service (ADDS)

Output produced by METARs form (1413 UTC 08 May 2021)
found at http://aviationweather.gov/metar/data/
 
KMLU 081120Z 0812/0912 VRB05KT P6SM SKC 
     FM081700 19011G17KT P6SM SKC 
     FM082300 18014G21KT P6SM SKC 
     FM090500 19012G18KT P6SM SKC 
     FM091000 18010KT P6SM SCT200 WS020/20055KT